Collins, Ohio
Current Conditions -  °F | °C
As of 7:53 AM on Saturday 25 Oct 2014 (Local Time) from KLPR Reporting Station
Haze Haze  
Wind Chill: 45°   Ceiling: 8500
Heat Index: 48°   Visibility: 6mi
Dew Point: 46°   Wind: 6mph
Humidity: 93%   Direction: 210°SSW
Pressure: 29.91"   Gusts: NA
Location:  41.26°N, 82.49°W
Report Text: KLPR 251153Z AUTO 21005KT 6SM BR BKN085 09/08 A2991 RMK AO2 SLP130 T00890078 10100 20078 58007 TSNO
Loading
Personal Weather Stations






























Interactive Weather Map
Tropical Storm Tracking
New forecast layout! Learn more

10-Day Weather Forecast

Advertisements
Track Severe Weather on mobile